createdAt,value
2023-05-30T00:00:36.001Z,64.40
2023-05-30T00:03:05.550Z,64.40
2023-05-30T00:05:32.774Z,64.40
2023-05-30T00:08:00.537Z,64.40
2023-05-30T00:10:27.613Z,64.50
2023-05-30T00:12:55.389Z,64.60
2023-05-30T00:15:22.368Z,64.60
2023-05-30T00:17:53.660Z,64.40
2023-05-30T00:20:23.815Z,64.40
2023-05-30T00:22:52.419Z,64.60
2023-05-30T00:25:21.837Z,64.70
2023-05-30T00:27:48.890Z,64.60
2023-05-30T00:30:15.921Z,64.60
2023-05-30T00:32:42.977Z,64.30
2023-05-30T00:35:10.311Z,64.00
2023-05-30T00:37:37.234Z,64.20
2023-05-30T00:40:05.381Z,64.30
2023-05-30T00:42:33.334Z,64.50
2023-05-30T00:45:01.188Z,64.50
2023-05-30T00:47:28.272Z,64.60
2023-05-30T00:49:56.516Z,64.60
2023-05-30T00:52:23.629Z,64.40
2023-05-30T00:54:51.668Z,64.60
2023-05-30T00:57:19.540Z,64.70
2023-05-30T00:59:46.879Z,65.00
2023-05-30T01:02:14.038Z,64.70
2023-05-30T01:04:41.673Z,64.60
2023-05-30T01:07:11.763Z,65.30
2023-05-30T01:09:39.155Z,64.70
2023-05-30T01:12:27.756Z,64.90
2023-05-30T01:15:11.333Z,64.40
2023-05-30T01:17:45.338Z,64.60
2023-05-30T01:20:14.999Z,64.50
2023-05-30T01:23:19.977Z,64.50
2023-05-30T01:25:55.987Z,64.30
2023-05-30T01:28:24.353Z,64.30
2023-05-30T01:30:54.352Z,63.80
2023-05-30T01:33:23.689Z,64.10
2023-05-30T01:35:52.473Z,63.50
2023-05-30T01:38:21.769Z,63.80
2023-05-30T01:40:55.352Z,63.80
2023-05-30T01:43:52.451Z,62.80
2023-05-30T01:46:42.558Z,61.90
2023-05-30T01:49:33.630Z,61.10
2023-05-30T01:52:15.395Z,60.80
2023-05-30T01:54:46.597Z,60.30
2023-05-30T01:57:16.597Z,60.20
2023-05-30T01:59:44.822Z,60.20
2023-05-30T02:02:12.497Z,60.20
2023-05-30T02:04:39.888Z,60.30
2023-05-30T02:07:06.943Z,60.40
2023-05-30T02:09:34.091Z,60.20
2023-05-30T02:12:02.750Z,60.00
2023-05-30T02:14:32.079Z,60.00
2023-05-30T02:17:02.477Z,60.20
2023-05-30T02:19:30.542Z,60.20
2023-05-30T02:21:57.538Z,60.10
2023-05-30T02:24:25.976Z,59.90
2023-05-30T02:26:54.129Z,59.80
2023-05-30T02:29:21.689Z,59.50
2023-05-30T02:31:48.750Z,59.70
2023-05-30T02:34:15.742Z,59.40
2023-05-30T02:36:45.161Z,59.50
2023-05-30T02:39:13.035Z,59.90
2023-05-30T02:41:43.137Z,60.70
2023-05-30T02:44:10.453Z,61.30
2023-05-30T02:46:38.736Z,61.90
2023-05-30T02:49:07.806Z,62.60
2023-05-30T02:51:34.840Z,63.50
2023-05-30T02:54:03.523Z,63.90
2023-05-30T02:56:52.094Z,64.20
2023-05-30T02:59:42.040Z,64.40
2023-05-30T03:02:13.123Z,64.50
2023-05-30T03:04:46.475Z,64.50
2023-05-30T03:07:19.672Z,64.20
2023-05-30T03:09:48.049Z,64.10
2023-05-30T03:12:16.315Z,64.00
2023-05-30T03:14:43.536Z,64.30
2023-05-30T03:17:10.660Z,64.50
2023-05-30T03:19:38.510Z,64.70
2023-05-30T03:22:09.046Z,64.90
2023-05-30T03:24:36.208Z,65.00
2023-05-30T03:27:03.710Z,65.20
2023-05-30T03:29:30.976Z,65.40
2023-05-30T03:31:58.232Z,65.40
2023-05-30T03:34:25.690Z,65.40
2023-05-30T03:36:54.172Z,65.30
2023-05-30T03:39:21.503Z,65.20
2023-05-30T03:41:48.616Z,65.10
2023-05-30T03:44:16.071Z,65.00
2023-05-30T03:46:43.086Z,65.00
2023-05-30T03:49:10.102Z,65.10
2023-05-30T03:51:37.412Z,65.30
2023-05-30T03:54:04.428Z,65.50
2023-05-30T03:56:31.555Z,65.50
2023-05-30T03:58:59.800Z,65.30
2023-05-30T04:01:26.761Z,65.30
2023-05-30T04:03:53.894Z,65.40
2023-05-30T04:06:22.651Z,65.50
2023-05-30T04:08:49.561Z,65.80
2023-05-30T04:11:17.083Z,65.80
2023-05-30T04:13:44.150Z,65.70
2023-05-30T04:16:11.338Z,65.50
2023-05-30T04:18:44.672Z,65.20
2023-05-30T04:21:15.461Z,64.90
2023-05-30T04:23:44.248Z,64.70
2023-05-30T04:26:11.999Z,64.50
2023-05-30T04:28:39.591Z,64.20
2023-05-30T04:31:20.431Z,64.30
2023-05-30T04:33:50.241Z,64.00
2023-05-30T04:36:21.286Z,64.00
2023-05-30T04:38:53.058Z,63.90
2023-05-30T04:41:26.190Z,63.60
2023-05-30T04:43:55.751Z,63.70
2023-05-30T04:46:26.002Z,63.50
2023-05-30T04:48:53.381Z,63.30
2023-05-30T04:51:26.842Z,63.10
2023-05-30T04:53:54.178Z,62.80
2023-05-30T04:56:21.742Z,62.50
2023-05-30T04:58:49.942Z,62.30
2023-05-30T05:01:19.688Z,62.50
2023-05-30T05:03:47.452Z,62.30
2023-05-30T05:06:14.784Z,62.30
2023-05-30T05:08:42.320Z,62.00
2023-05-30T05:11:09.871Z,61.60
2023-05-30T05:13:36.806Z,60.90
2023-05-30T05:16:05.835Z,60.10
2023-05-30T05:18:33.110Z,59.50
2023-05-30T05:21:00.559Z,58.60
2023-05-30T05:23:29.252Z,57.60
2023-05-30T05:25:57.759Z,56.30
2023-05-30T05:28:24.901Z,54.60
2023-05-30T05:30:51.802Z,53.10
2023-05-30T05:33:18.849Z,51.90
2023-05-30T05:35:47.484Z,50.50
2023-05-30T05:38:15.659Z,49.50
2023-05-30T05:40:42.743Z,48.30
2023-05-30T05:43:09.711Z,47.50
2023-05-30T05:45:36.660Z,46.70
2023-05-30T05:48:03.704Z,45.90
2023-05-30T05:50:31.797Z,45.30
2023-05-30T05:52:58.699Z,44.80
2023-05-30T05:55:25.759Z,44.10
2023-05-30T05:57:56.080Z,43.60
2023-05-30T06:00:24.857Z,43.50
2023-05-30T06:02:52.350Z,44.00
2023-05-30T06:05:19.386Z,45.00
2023-05-30T06:07:46.446Z,46.20
2023-05-30T06:10:13.417Z,47.50
2023-05-30T06:12:40.497Z,48.80
2023-05-30T06:15:07.933Z,49.80
2023-05-30T06:17:35.386Z,50.60
2023-05-30T06:20:03.401Z,51.20
2023-05-30T06:22:30.407Z,51.60
2023-05-30T06:24:58.268Z,51.70
2023-05-30T06:27:25.123Z,51.60
2023-05-30T06:29:53.728Z,52.00
2023-05-30T06:32:20.834Z,51.20
2023-05-30T06:34:47.778Z,50.80
2023-05-30T06:37:15.321Z,50.50
2023-05-30T06:39:42.303Z,50.20
2023-05-30T06:42:10.210Z,50.10
2023-05-30T06:44:43.824Z,50.00
2023-05-30T06:47:11.004Z,49.90
2023-05-30T06:49:37.921Z,50.70
2023-05-30T06:52:04.953Z,50.20
2023-05-30T06:54:33.020Z,50.10
2023-05-30T06:57:04.161Z,50.70
2023-05-30T06:59:31.767Z,51.60
2023-05-30T07:01:58.742Z,52.10
2023-05-30T07:04:25.754Z,52.40
2023-05-30T07:06:52.784Z,52.40
2023-05-30T07:09:19.600Z,51.90
2023-05-30T07:11:46.591Z,52.10
2023-05-30T07:14:13.585Z,52.70
2023-05-30T07:16:41.207Z,53.00
2023-05-30T07:19:12.838Z,53.60
2023-05-30T07:21:41.005Z,53.90
2023-05-30T07:24:08.112Z,54.00
2023-05-30T07:26:35.484Z,54.10
2023-05-30T07:29:02.684Z,54.10
2023-05-30T07:31:29.659Z,54.30
2023-05-30T07:33:56.648Z,54.50
2023-05-30T07:36:23.534Z,54.70
2023-05-30T07:38:50.501Z,54.50
2023-05-30T07:41:17.555Z,51.90
2023-05-30T07:43:44.562Z,50.50
2023-05-30T07:46:11.688Z,49.20
2023-05-30T07:48:38.615Z,47.80
2023-05-30T07:51:07.192Z,47.90
2023-05-30T07:53:34.092Z,48.00
2023-05-30T07:56:01.061Z,48.40
2023-05-30T07:58:27.872Z,48.10
2023-05-30T08:00:54.800Z,46.10
2023-05-30T08:03:21.838Z,44.70
2023-05-30T08:05:52.207Z,44.40
2023-05-30T08:08:19.993Z,43.90
2023-05-30T08:10:46.872Z,44.00
2023-05-30T08:13:15.019Z,43.20
2023-05-30T08:15:42.370Z,41.70
2023-05-30T08:18:10.316Z,40.60
2023-05-30T08:20:37.411Z,40.80
2023-05-30T08:23:04.918Z,40.20
2023-05-30T08:25:36.298Z,39.90
2023-05-30T08:28:03.544Z,39.20
2023-05-30T08:30:31.554Z,38.40
2023-05-30T08:32:59.463Z,38.00
2023-05-30T08:35:26.372Z,37.50
2023-05-30T08:37:53.433Z,36.70
2023-05-30T08:40:22.004Z,36.10
2023-05-30T08:42:48.928Z,36.00
2023-05-30T08:45:16.712Z,36.10
2023-05-30T08:47:43.835Z,36.40
2023-05-30T08:50:11.124Z,35.80
2023-05-30T08:52:39.357Z,36.00
2023-05-30T08:55:18.198Z,35.70
2023-05-30T08:57:48.160Z,35.50
2023-05-30T09:00:15.534Z,34.50
2023-05-30T09:02:44.051Z,33.30
2023-05-30T09:05:11.895Z,32.90
2023-05-30T09:07:39.953Z,32.50
2023-05-30T09:10:08.274Z,33.40
2023-05-30T09:12:36.139Z,33.30
2023-05-30T09:15:03.397Z,32.40
2023-05-30T09:17:30.391Z,32.00
2023-05-30T09:19:57.742Z,31.70
2023-05-30T09:22:26.336Z,31.10
2023-05-30T09:25:01.479Z,31.90
2023-05-30T09:27:29.722Z,32.00
2023-05-30T09:29:57.283Z,33.20
2023-05-30T09:32:30.703Z,34.60
2023-05-30T09:34:58.381Z,35.70
2023-05-30T09:37:25.758Z,37.10
2023-05-30T09:40:22.128Z,37.70
2023-05-30T09:42:54.794Z,39.20
2023-05-30T09:45:22.701Z,40.00
2023-05-30T09:47:50.662Z,40.10
2023-05-30T09:50:22.075Z,40.60
2023-05-30T09:52:57.410Z,41.50
2023-05-30T09:55:25.394Z,41.10
2023-05-30T09:57:52.971Z,42.10
2023-05-30T10:00:23.772Z,43.80
2023-05-30T10:02:55.208Z,43.80
2023-05-30T10:05:23.199Z,44.50
2023-05-30T10:07:50.964Z,44.20
2023-05-30T10:10:18.398Z,43.50
2023-05-30T10:12:49.616Z,43.00
2023-05-30T10:15:21.848Z,41.40
2023-05-30T10:17:56.440Z,40.40
2023-05-30T10:20:25.564Z,38.00
2023-05-30T10:22:55.614Z,38.20
2023-05-30T10:25:23.237Z,37.80
2023-05-30T10:27:52.865Z,38.40
2023-05-30T10:30:29.912Z,39.20
2023-05-30T10:33:08.263Z,39.40
2023-05-30T10:35:35.986Z,39.40
2023-05-30T10:38:05.584Z,39.80
2023-05-30T10:40:32.410Z,39.70
2023-05-30T10:43:12.305Z,39.80
2023-05-30T10:45:39.122Z,39.80
2023-05-30T10:48:25.149Z,39.60
2023-05-30T10:50:52.892Z,39.70
2023-05-30T10:53:20.058Z,39.90
2023-05-30T10:55:48.006Z,40.00
2023-05-30T10:58:34.218Z,41.10
2023-05-30T11:01:20.837Z,41.90
2023-05-30T11:03:47.740Z,42.70
2023-05-30T11:06:15.857Z,43.40
2023-05-30T11:08:42.760Z,43.90
2023-05-30T11:11:16.544Z,44.00
2023-05-30T11:13:50.674Z,44.60
2023-05-30T11:16:27.026Z,44.20
2023-05-30T11:18:56.886Z,44.40
2023-05-30T11:21:42.323Z,44.60
2023-05-30T11:24:09.157Z,43.70
2023-05-30T11:26:54.849Z,44.20
2023-05-30T11:29:31.359Z,44.70
2023-05-30T11:31:58.718Z,45.50
2023-05-30T11:34:25.912Z,47.00
2023-05-30T11:36:54.036Z,51.10
2023-05-30T11:39:21.137Z,55.10
2023-05-30T11:41:49.535Z,57.20
2023-05-30T11:44:17.487Z,58.50
2023-05-30T11:46:44.487Z,59.70
2023-05-30T11:49:11.720Z,60.70
2023-05-30T11:51:38.862Z,61.00
2023-05-30T11:54:07.011Z,60.50
2023-05-30T11:56:33.926Z,60.80
2023-05-30T11:59:00.975Z,59.10
2023-05-30T12:01:28.333Z,59.00
2023-05-30T12:03:55.224Z,56.10
2023-05-30T12:06:23.147Z,57.10
2023-05-30T12:08:50.349Z,57.60
2023-05-30T12:11:17.378Z,57.50
2023-05-30T12:13:44.250Z,57.30
2023-05-30T12:16:14.470Z,56.00
2023-05-30T12:18:42.349Z,54.80
2023-05-30T12:21:12.238Z,53.80
2023-05-30T12:23:44.205Z,53.10
2023-05-30T12:26:17.705Z,52.10
2023-05-30T12:28:46.229Z,50.90
2023-05-30T12:31:25.209Z,50.20
2023-05-30T12:33:52.251Z,49.90
2023-05-30T12:36:29.450Z,50.00
2023-05-30T12:38:59.190Z,48.60
2023-05-30T12:41:32.474Z,47.30
2023-05-30T12:44:00.083Z,46.50
2023-05-30T12:46:32.492Z,46.60
2023-05-30T12:48:59.462Z,43.00
2023-05-30T12:51:26.779Z,43.30
2023-05-30T12:53:54.684Z,43.30
2023-05-30T12:56:22.099Z,42.00
2023-05-30T12:58:49.134Z,41.70
2023-05-30T13:01:16.226Z,42.00
2023-05-30T13:03:43.321Z,42.70
2023-05-30T13:06:10.673Z,42.10
2023-05-30T13:08:37.610Z,42.30
2023-05-30T13:11:06.746Z,41.80
2023-05-30T13:13:34.101Z,42.30
2023-05-30T13:16:01.416Z,42.30
2023-05-30T13:18:28.372Z,42.10
2023-05-30T13:20:55.367Z,42.00
2023-05-30T13:23:22.917Z,40.70
2023-05-30T13:25:49.845Z,41.30
2023-05-30T13:28:16.777Z,40.50
2023-05-30T13:30:43.650Z,39.70
2023-05-30T13:33:11.024Z,40.30
2023-05-30T13:35:38.007Z,40.10
2023-05-30T13:38:04.913Z,39.80
2023-05-30T13:40:31.951Z,40.00
2023-05-30T13:42:59.066Z,39.80
2023-05-30T13:45:26.333Z,39.90
2023-05-30T13:47:53.605Z,40.20
2023-05-30T13:50:23.627Z,40.50
2023-05-30T13:52:51.238Z,40.50
2023-05-30T13:55:18.534Z,41.10
2023-05-30T13:57:45.599Z,41.90
2023-05-30T14:00:13.019Z,41.50
2023-05-30T14:02:41.092Z,40.80
2023-05-30T14:05:08.244Z,41.00
2023-05-30T14:07:35.187Z,41.10
2023-05-30T14:10:02.096Z,40.70
2023-05-30T14:12:29.004Z,40.70
2023-05-30T14:14:58.539Z,40.00
2023-05-30T14:17:25.745Z,40.20
2023-05-30T14:19:52.582Z,40.00
2023-05-30T14:22:19.505Z,39.70
2023-05-30T14:24:46.416Z,39.90
2023-05-30T14:27:14.046Z,40.00
2023-05-30T14:29:41.146Z,39.20
2023-05-30T14:32:08.288Z,39.60
2023-05-30T14:34:35.143Z,40.50
2023-05-30T14:37:02.964Z,40.70
2023-05-30T14:39:30.757Z,40.00
2023-05-30T14:41:57.619Z,40.70
2023-05-30T14:44:24.958Z,41.10
2023-05-30T14:46:52.366Z,40.70
2023-05-30T14:49:20.180Z,40.70
2023-05-30T14:51:47.151Z,41.60
2023-05-30T14:54:14.028Z,41.60
2023-05-30T14:56:41.892Z,42.00
2023-05-30T14:59:09.015Z,42.00
2023-05-30T15:01:45.265Z,42.30
2023-05-30T15:04:13.519Z,41.90
2023-05-30T15:06:40.407Z,42.60
2023-05-30T15:09:07.589Z,42.60
2023-05-30T15:11:35.358Z,43.60
2023-05-30T15:14:02.563Z,43.90
2023-05-30T15:16:29.798Z,43.90
2023-05-30T15:18:56.793Z,43.50
2023-05-30T15:21:23.729Z,44.10
2023-05-30T15:23:50.653Z,44.20
2023-05-30T15:26:17.599Z,43.90
2023-05-30T15:28:45.582Z,43.60
2023-05-30T15:31:12.526Z,43.60
2023-05-30T15:33:39.409Z,43.60
2023-05-30T15:36:06.299Z,43.60
2023-05-30T15:38:33.168Z,43.40
2023-05-30T15:41:00.342Z,43.20
2023-05-30T15:43:27.445Z,42.90
2023-05-30T15:45:54.684Z,42.80
2023-05-30T15:48:21.926Z,42.70
2023-05-30T15:50:48.894Z,42.20
2023-05-30T15:53:16.040Z,42.10
2023-05-30T15:55:43.014Z,42.10
2023-05-30T15:58:10.286Z,42.20
2023-05-30T16:00:37.349Z,42.90
2023-05-30T16:03:04.302Z,42.40
2023-05-30T16:05:31.291Z,41.70
2023-05-30T16:07:59.022Z,41.70
2023-05-30T16:10:26.555Z,42.10
2023-05-30T16:12:53.772Z,42.60
2023-05-30T16:15:20.664Z,42.00
2023-05-30T16:17:47.902Z,41.70
2023-05-30T16:20:14.823Z,41.90
2023-05-30T16:22:42.903Z,42.20
2023-05-30T16:25:09.817Z,42.60
2023-05-30T16:27:36.743Z,43.50
2023-05-30T16:30:04.388Z,44.00
2023-05-30T16:32:31.430Z,44.20
2023-05-30T16:34:58.372Z,44.30
2023-05-30T16:37:25.516Z,44.20
2023-05-30T16:39:52.424Z,44.50
2023-05-30T16:42:19.387Z,45.30
2023-05-30T16:44:46.224Z,44.70
2023-05-30T16:47:13.623Z,44.80
2023-05-30T16:49:40.525Z,45.30
2023-05-30T16:52:07.582Z,45.50
2023-05-30T16:54:34.513Z,45.20
2023-05-30T16:57:01.397Z,45.20
2023-05-30T16:59:28.374Z,45.40
2023-05-30T17:01:55.500Z,45.60
2023-05-30T17:04:22.484Z,45.60
2023-05-30T17:06:49.410Z,45.50
2023-05-30T17:09:16.252Z,45.60
2023-05-30T17:11:43.125Z,45.40
2023-05-30T17:14:09.972Z,45.90
2023-05-30T17:16:37.017Z,46.40
2023-05-30T17:19:11.479Z,47.50
2023-05-30T17:21:38.626Z,48.00
2023-05-30T17:24:08.370Z,48.30
2023-05-30T17:26:36.709Z,49.20
2023-05-30T17:29:09.135Z,49.80
2023-05-30T17:31:36.321Z,50.40
2023-05-30T17:34:03.539Z,51.10
2023-05-30T17:36:30.439Z,51.60
2023-05-30T17:38:58.573Z,52.10
2023-05-30T17:41:25.451Z,52.50
2023-05-30T17:43:52.323Z,53.30
2023-05-30T17:46:19.234Z,53.70
2023-05-30T17:48:46.110Z,54.30
2023-05-30T17:51:13.104Z,54.80
2023-05-30T17:53:51.317Z,55.20
2023-05-30T17:56:22.745Z,55.10
2023-05-30T17:58:49.626Z,55.40
2023-05-30T18:01:16.601Z,55.80
2023-05-30T18:03:43.837Z,56.10
2023-05-30T18:06:23.021Z,56.10
2023-05-30T18:08:53.643Z,56.40
2023-05-30T18:11:20.670Z,56.60
2023-05-30T18:13:47.567Z,56.80
2023-05-30T18:16:14.436Z,56.80
2023-05-30T18:18:41.341Z,57.10
2023-05-30T18:21:08.314Z,57.40
2023-05-30T18:23:35.784Z,57.70
2023-05-30T18:26:03.616Z,58.10
2023-05-30T18:28:30.553Z,58.40
2023-05-30T18:30:57.540Z,58.50
2023-05-30T18:33:24.414Z,58.70
2023-05-30T18:36:03.969Z,58.70
2023-05-30T18:38:39.008Z,58.90
2023-05-30T18:41:05.851Z,59.10
2023-05-30T18:43:32.749Z,59.40
2023-05-30T18:46:00.144Z,59.50
2023-05-30T18:48:43.294Z,59.90
2023-05-30T18:51:11.654Z,60.10
2023-05-30T18:53:38.474Z,60.20
2023-05-30T18:56:05.469Z,60.50
2023-05-30T18:58:32.420Z,60.60
2023-05-30T19:00:59.780Z,60.80
2023-05-30T19:03:27.427Z,61.10
2023-05-30T19:05:54.421Z,61.00
2023-05-30T19:08:21.392Z,61.20
2023-05-30T19:10:48.261Z,61.30
2023-05-30T19:13:15.177Z,61.50
2023-05-30T19:15:42.132Z,61.70
2023-05-30T19:18:09.768Z,61.70
2023-05-30T19:20:37.528Z,61.70
2023-05-30T19:23:04.565Z,61.70
2023-05-30T19:25:31.496Z,61.70
2023-05-30T19:28:08.383Z,61.70
2023-05-30T19:30:36.144Z,61.70
2023-05-30T19:33:03.397Z,61.80
2023-05-30T19:35:30.356Z,61.90
2023-05-30T19:38:00.273Z,62.00
2023-05-30T19:51:57.834Z,61.40
2023-05-30T19:54:24.717Z,59.70
2023-05-30T19:56:52.197Z,60.40
2023-05-30T19:59:19.086Z,60.90
2023-05-30T20:01:46.078Z,61.40
2023-05-30T20:04:13.091Z,61.70
2023-05-30T20:06:40.007Z,62.20
2023-05-30T20:09:06.845Z,62.90
2023-05-30T20:11:33.812Z,63.60
2023-05-30T20:14:01.050Z,64.10
2023-05-30T20:16:28.027Z,64.60
2023-05-30T20:18:54.962Z,65.40
2023-05-30T20:21:21.886Z,66.30
2023-05-30T20:23:48.740Z,66.60
2023-05-30T20:26:15.630Z,67.60
2023-05-30T20:28:42.501Z,67.50
2023-05-30T20:31:09.518Z,66.70
2023-05-30T20:33:36.463Z,64.70
2023-05-30T20:36:03.349Z,62.00
2023-05-30T20:38:30.357Z,61.10
2023-05-30T20:40:57.227Z,59.80
2023-05-30T20:43:24.177Z,58.90
2023-05-30T20:45:51.379Z,58.20
2023-05-30T20:48:18.280Z,57.60
2023-05-30T20:50:45.169Z,57.30
2023-05-30T20:53:12.926Z,57.30
2023-05-30T20:55:40.499Z,57.30
2023-05-30T20:58:09.113Z,57.30
2023-05-30T21:00:36.052Z,56.70
2023-05-30T21:03:02.963Z,56.20
2023-05-30T21:05:29.860Z,55.70
2023-05-30T21:07:56.857Z,54.80
2023-05-30T21:10:23.693Z,54.70
2023-05-30T21:12:50.554Z,54.30
2023-05-30T21:15:22.603Z,54.10
2023-05-30T21:17:49.517Z,53.80
2023-05-30T21:20:16.480Z,53.50
2023-05-30T21:22:43.348Z,53.30
2023-05-30T21:25:10.265Z,53.10
2023-05-30T21:27:37.065Z,53.30
2023-05-30T21:30:04.080Z,53.80
2023-05-30T21:32:31.122Z,54.20
2023-05-30T21:34:58.210Z,54.70
2023-05-30T21:37:25.194Z,55.10
2023-05-30T21:39:52.152Z,55.60
2023-05-30T21:42:19.272Z,56.10
2023-05-30T21:44:47.697Z,56.40
2023-05-30T21:47:14.687Z,56.80
2023-05-30T21:49:41.673Z,57.30
2023-05-30T21:52:08.622Z,57.70
2023-05-30T21:54:40.592Z,58.20
2023-05-30T21:57:08.805Z,58.90
2023-05-30T21:59:39.161Z,60.00
2023-05-30T22:02:07.473Z,60.90
2023-05-30T22:04:35.628Z,61.50
2023-05-30T22:07:08.414Z,62.00
2023-05-30T22:09:36.851Z,61.70
2023-05-30T22:12:05.384Z,61.70
2023-05-30T22:14:32.750Z,61.70
2023-05-30T22:16:59.933Z,61.00
2023-05-30T22:19:27.089Z,60.50
2023-05-30T22:22:02.747Z,60.20
2023-05-30T22:24:33.346Z,60.00
2023-05-30T22:27:00.853Z,60.20
2023-05-30T22:29:28.026Z,60.30
2023-05-30T22:31:55.992Z,60.50
2023-05-30T22:34:23.340Z,60.40
2023-05-30T22:36:50.627Z,60.40
2023-05-30T22:39:17.755Z,61.20
2023-05-30T22:41:44.865Z,62.40
2023-05-30T22:44:12.040Z,63.40
2023-05-30T22:46:40.740Z,64.00
2023-05-30T22:49:07.837Z,65.40
2023-05-30T22:51:35.063Z,66.40
2023-05-30T22:54:02.552Z,67.30
2023-05-30T22:56:29.726Z,67.40
2023-05-30T22:58:57.382Z,67.60
2023-05-30T23:01:24.677Z,67.70
2023-05-30T23:03:53.061Z,66.90
2023-05-30T23:06:20.178Z,66.70
2023-05-30T23:08:47.299Z,67.00
2023-05-30T23:11:14.468Z,66.30
2023-05-30T23:13:41.664Z,66.50
2023-05-30T23:16:08.816Z,67.00
2023-05-30T23:18:36.675Z,67.30
2023-05-30T23:21:04.082Z,67.30
2023-05-30T23:23:31.595Z,67.00
2023-05-30T23:25:58.724Z,67.30
2023-05-30T23:28:26.666Z,66.50
2023-05-30T23:30:53.809Z,66.40
2023-05-30T23:33:21.091Z,66.10
2023-05-30T23:35:48.220Z,65.70
2023-05-30T23:38:15.589Z,65.60
2023-05-30T23:40:42.517Z,65.60
2023-05-30T23:43:09.579Z,66.00
2023-05-30T23:45:36.548Z,66.60
2023-05-30T23:48:03.712Z,67.30
2023-05-30T23:50:30.859Z,67.70
2023-05-30T23:52:57.811Z,68.40
2023-05-30T23:55:24.812Z,68.50
2023-05-30T23:57:51.901Z,68.40
